createdAt,value
2018-08-31T00:00:10.646Z,6.437376
2018-08-31T00:00:23.068Z,8.04672
2018-08-31T00:00:35.490Z,8.04672
2018-08-31T00:00:47.917Z,14.484096
2018-08-31T00:01:00.335Z,14.484096
2018-08-31T00:01:12.747Z,12.874752
2018-08-31T00:01:25.155Z,12.874752
2018-08-31T00:01:37.546Z,12.874752
2018-08-31T00:01:49.949Z,12.874752
2018-08-31T00:02:02.333Z,12.874752
2018-08-31T00:02:14.737Z,9.656064
2018-08-31T00:02:27.139Z,11.265408
2018-08-31T00:02:39.537Z,11.265408
2018-08-31T00:02:52.072Z,11.265408
2018-08-31T00:03:04.700Z,8.04672
2018-08-31T00:03:17.103Z,8.04672
2018-08-31T00:03:29.487Z,8.04672
2018-08-31T00:03:41.873Z,8.04672
2018-08-31T00:03:54.271Z,8.04672
2018-08-31T00:04:06.670Z,6.437376
2018-08-31T00:04:19.065Z,6.437376
2018-08-31T00:04:31.500Z,6.437376
2018-08-31T00:04:43.912Z,6.437376
2018-08-31T00:04:56.312Z,6.437376
2018-08-31T00:05:08.712Z,8.04672
2018-08-31T00:05:21.104Z,11.265408
2018-08-31T00:05:33.843Z,11.265408
2018-08-31T00:05:46.258Z,11.265408
2018-08-31T00:05:58.657Z,11.265408
2018-08-31T00:06:11.052Z,20.921472
2018-08-31T00:06:23.457Z,20.921472
2018-08-31T00:06:35.989Z,20.921472
2018-08-31T00:06:48.373Z,20.921472
2018-08-31T00:07:00.759Z,20.921472
2018-08-31T00:07:13.190Z,14.484096
2018-08-31T00:07:25.606Z,14.484096
2018-08-31T00:07:38.038Z,14.484096
2018-08-31T00:07:50.472Z,14.484096
2018-08-31T00:08:02.884Z,14.484096
2018-08-31T00:08:15.311Z,4.828032
2018-08-31T00:08:27.738Z,11.265408
2018-08-31T00:08:40.166Z,11.265408
2018-08-31T00:08:52.594Z,11.265408
2018-08-31T00:09:05.017Z,12.874752
2018-08-31T00:09:17.445Z,12.874752
2018-08-31T00:09:29.867Z,24.14016
2018-08-31T00:09:42.284Z,24.14016
2018-08-31T00:09:54.709Z,24.14016
2018-08-31T00:10:07.313Z,11.265408
2018-08-31T00:10:19.800Z,12.874752
2018-08-31T00:10:32.236Z,12.874752
2018-08-31T00:10:44.643Z,12.874752
2018-08-31T00:10:57.022Z,12.874752
2018-08-31T00:11:09.450Z,3.218688
2018-08-31T00:11:21.844Z,3.218688
2018-08-31T00:11:34.247Z,6.437376
2018-08-31T00:11:46.702Z,8.04672
2018-08-31T00:11:59.157Z,9.656064
2018-08-31T00:12:11.588Z,4.828032
2018-08-31T00:12:23.990Z,9.656064
2018-08-31T00:12:36.387Z,11.265408
2018-08-31T00:12:48.799Z,11.265408
2018-08-31T00:13:01.217Z,11.265408
2018-08-31T00:13:13.631Z,11.265408
2018-08-31T00:13:26.028Z,11.265408
2018-08-31T00:13:38.476Z,11.265408
2018-08-31T00:13:50.869Z,11.265408
2018-08-31T00:14:03.266Z,11.265408
2018-08-31T00:14:15.673Z,3.218688
2018-08-31T00:14:28.076Z,3.218688
2018-08-31T00:14:40.465Z,3.218688
2018-08-31T00:14:52.871Z,3.218688
2018-08-31T00:15:05.313Z,6.437376
2018-08-31T00:15:17.716Z,8.04672
2018-08-31T00:15:30.135Z,12.874752
2018-08-31T00:15:42.557Z,12.874752
2018-08-31T00:15:54.979Z,12.874752
2018-08-31T00:16:07.388Z,3.218688
2018-08-31T00:16:19.819Z,12.874752
2018-08-31T00:16:32.231Z,12.874752
2018-08-31T00:16:44.711Z,19.312128
2018-08-31T00:16:57.117Z,19.312128
2018-08-31T00:17:09.529Z,12.874752
2018-08-31T00:17:21.937Z,14.484096
2018-08-31T00:17:34.365Z,14.484096
2018-08-31T00:17:46.807Z,14.484096
2018-08-31T00:17:59.214Z,14.484096
2018-08-31T00:18:11.625Z,9.656064
2018-08-31T00:18:24.042Z,9.656064
2018-08-31T00:18:36.487Z,11.265408
2018-08-31T00:18:48.886Z,14.484096
2018-08-31T00:19:01.288Z,14.484096
2018-08-31T00:19:13.693Z,14.484096
2018-08-31T00:19:26.317Z,14.484096
2018-08-31T00:19:38.711Z,14.484096
2018-08-31T00:19:51.107Z,14.484096
2018-08-31T00:20:03.638Z,11.265408
2018-08-31T00:20:16.250Z,20.921472
2018-08-31T00:20:28.859Z,20.921472
2018-08-31T00:20:41.279Z,20.921472
2018-08-31T00:20:53.686Z,20.921472
2018-08-31T00:21:06.123Z,12.874752
2018-08-31T00:21:18.537Z,12.874752
2018-08-31T00:21:31.012Z,12.874752
2018-08-31T00:21:43.418Z,12.874752
2018-08-31T00:21:55.827Z,12.874752
2018-08-31T00:22:08.248Z,9.656064
2018-08-31T00:22:20.683Z,12.874752
2018-08-31T00:22:33.099Z,12.874752
2018-08-31T00:22:45.698Z,12.874752
2018-08-31T00:22:58.251Z,12.874752
2018-08-31T00:23:10.650Z,8.04672
2018-08-31T00:23:23.085Z,9.656064
2018-08-31T00:23:35.699Z,9.656064
2018-08-31T00:23:48.098Z,9.656064
2018-08-31T00:24:00.494Z,9.656064
2018-08-31T00:24:12.896Z,8.04672
2018-08-31T00:24:25.309Z,8.04672
2018-08-31T00:24:37.729Z,16.09344
2018-08-31T00:24:50.137Z,16.09344
2018-08-31T00:25:02.535Z,16.09344
2018-08-31T00:25:15.174Z,6.437376
2018-08-31T00:25:27.596Z,8.04672
2018-08-31T00:25:39.996Z,8.04672
2018-08-31T00:25:52.406Z,8.04672
2018-08-31T00:26:04.863Z,9.656064
2018-08-31T00:26:17.347Z,9.656064
2018-08-31T00:26:29.869Z,9.656064
2018-08-31T00:26:42.445Z,11.265408
2018-08-31T00:26:54.870Z,16.09344
2018-08-31T00:27:07.425Z,8.04672
2018-08-31T00:27:19.832Z,12.874752
2018-08-31T00:27:32.232Z,16.09344
2018-08-31T00:27:44.661Z,16.09344
2018-08-31T00:27:57.057Z,16.09344
2018-08-31T00:28:09.516Z,11.265408
2018-08-31T00:28:21.927Z,11.265408
2018-08-31T00:28:34.425Z,11.265408
2018-08-31T00:28:46.834Z,14.484096
2018-08-31T00:28:59.232Z,14.484096
2018-08-31T00:29:11.645Z,8.04672
2018-08-31T00:29:24.062Z,8.04672
2018-08-31T00:29:36.465Z,8.04672
2018-08-31T00:29:48.965Z,8.04672
2018-08-31T00:30:01.471Z,8.04672
2018-08-31T00:30:13.893Z,19.312128
2018-08-31T00:30:26.329Z,19.312128
2018-08-31T00:30:38.721Z,19.312128
2018-08-31T00:30:51.127Z,19.312128
2018-08-31T00:31:03.517Z,19.312128
2018-08-31T00:31:15.921Z,16.09344
2018-08-31T00:31:28.334Z,16.09344
2018-08-31T00:31:40.762Z,19.312128
2018-08-31T00:31:53.231Z,19.312128
2018-08-31T00:32:05.617Z,12.874752
2018-08-31T00:32:18.578Z,12.874752
2018-08-31T00:32:30.979Z,12.874752
2018-08-31T00:32:43.364Z,12.874752
2018-08-31T00:32:55.780Z,12.874752
2018-08-31T00:33:08.433Z,11.265408
2018-08-31T00:33:20.842Z,12.874752
2018-08-31T00:33:33.247Z,12.874752
2018-08-31T00:33:45.679Z,12.874752
2018-08-31T00:33:58.120Z,20.921472
2018-08-31T00:34:10.692Z,20.921472
2018-08-31T00:34:23.109Z,20.921472
2018-08-31T00:34:35.507Z,20.921472
2018-08-31T00:34:47.901Z,20.921472
2018-08-31T00:35:00.299Z,20.921472
2018-08-31T00:35:12.698Z,17.702784
2018-08-31T00:35:25.105Z,19.312128
2018-08-31T00:35:37.500Z,19.312128
2018-08-31T00:35:49.896Z,19.312128
2018-08-31T00:36:02.283Z,19.312128
2018-08-31T00:36:14.699Z,12.874752
2018-08-31T00:36:27.102Z,12.874752
2018-08-31T00:36:39.517Z,12.874752
2018-08-31T00:36:51.961Z,12.874752
2018-08-31T00:37:04.383Z,6.437376
2018-08-31T00:37:16.828Z,9.656064
2018-08-31T00:37:29.264Z,11.265408
2018-08-31T00:37:41.719Z,16.09344
2018-08-31T00:37:54.126Z,16.09344
2018-08-31T00:38:06.527Z,12.874752
2018-08-31T00:38:19.000Z,14.484096
2018-08-31T00:38:31.399Z,14.484096
2018-08-31T00:38:43.799Z,14.484096
2018-08-31T00:38:56.189Z,14.484096
2018-08-31T00:39:08.640Z,3.218688
2018-08-31T00:39:21.046Z,6.437376
2018-08-31T00:39:33.455Z,6.437376
2018-08-31T00:39:45.860Z,6.437376
2018-08-31T00:39:58.252Z,6.437376
2018-08-31T00:40:10.668Z,8.04672
2018-08-31T00:40:23.067Z,8.04672
2018-08-31T00:40:35.655Z,14.484096
2018-08-31T00:40:48.058Z,14.484096
2018-08-31T00:41:00.459Z,14.484096
2018-08-31T00:41:12.864Z,6.437376
2018-08-31T00:41:25.265Z,8.04672
2018-08-31T00:41:37.667Z,8.04672
2018-08-31T00:41:50.055Z,9.656064
2018-08-31T00:42:02.463Z,9.656064
2018-08-31T00:42:15.118Z,8.04672
2018-08-31T00:42:27.565Z,8.04672
2018-08-31T00:42:39.986Z,8.04672
2018-08-31T00:42:52.402Z,8.04672
2018-08-31T00:43:04.831Z,6.437376
2018-08-31T00:43:17.267Z,14.484096
2018-08-31T00:43:29.680Z,14.484096
2018-08-31T00:43:42.099Z,14.484096
2018-08-31T00:43:54.545Z,14.484096
2018-08-31T00:44:06.980Z,3.218688
2018-08-31T00:44:19.410Z,6.437376
2018-08-31T00:44:31.822Z,6.437376
2018-08-31T00:44:44.255Z,6.437376
2018-08-31T00:44:56.692Z,6.437376
2018-08-31T00:45:09.111Z,14.484096
2018-08-31T00:45:21.520Z,19.312128
2018-08-31T00:45:33.938Z,19.312128
2018-08-31T00:45:46.333Z,19.312128
2018-08-31T00:45:58.747Z,19.312128
2018-08-31T00:46:11.141Z,12.874752
2018-08-31T00:46:23.557Z,12.874752
2018-08-31T00:46:35.976Z,12.874752
2018-08-31T00:46:48.556Z,12.874752
2018-08-31T00:47:00.965Z,14.484096
2018-08-31T00:47:13.349Z,11.265408
2018-08-31T00:47:25.743Z,14.484096
2018-08-31T00:47:38.166Z,14.484096
2018-08-31T00:47:50.566Z,14.484096
2018-08-31T00:48:02.990Z,14.484096
2018-08-31T00:48:15.432Z,9.656064
2018-08-31T00:48:27.839Z,11.265408
2018-08-31T00:48:40.265Z,11.265408
2018-08-31T00:48:52.798Z,12.874752
2018-08-31T00:49:05.223Z,6.437376
2018-08-31T00:49:17.725Z,6.437376
2018-08-31T00:49:30.175Z,9.656064
2018-08-31T00:49:42.593Z,9.656064
2018-08-31T00:49:55.005Z,9.656064
2018-08-31T00:50:07.457Z,3.218688
2018-08-31T00:50:19.913Z,3.218688
2018-08-31T00:50:32.340Z,3.218688
2018-08-31T00:50:44.794Z,4.828032
2018-08-31T00:50:57.222Z,8.04672
2018-08-31T00:51:09.656Z,9.656064
2018-08-31T00:51:22.089Z,11.265408
2018-08-31T00:51:34.518Z,11.265408
2018-08-31T00:51:46.954Z,11.265408
2018-08-31T00:51:59.348Z,11.265408
2018-08-31T00:52:11.765Z,8.04672
2018-08-31T00:52:24.216Z,8.04672
2018-08-31T00:52:36.645Z,8.04672
2018-08-31T00:52:49.092Z,12.874752
2018-08-31T00:53:01.529Z,17.702784
2018-08-31T00:53:13.956Z,14.484096
2018-08-31T00:53:26.367Z,17.702784
2018-08-31T00:53:38.816Z,17.702784
2018-08-31T00:53:51.245Z,17.702784
2018-08-31T00:54:03.683Z,17.702784
2018-08-31T00:54:16.122Z,12.874752
2018-08-31T00:54:28.576Z,12.874752
2018-08-31T00:54:41.020Z,12.874752
2018-08-31T00:54:53.436Z,12.874752
2018-08-31T00:55:05.868Z,8.04672
2018-08-31T00:55:18.294Z,11.265408
2018-08-31T00:55:30.728Z,11.265408
2018-08-31T00:55:43.153Z,11.265408
2018-08-31T00:55:55.570Z,11.265408
2018-08-31T00:56:07.996Z,6.437376
2018-08-31T00:56:20.415Z,6.437376
2018-08-31T00:56:32.886Z,6.437376
2018-08-31T00:56:45.337Z,6.437376
2018-08-31T00:56:57.743Z,6.437376
2018-08-31T00:57:10.375Z,3.218688
2018-08-31T00:57:22.815Z,9.656064
2018-08-31T00:57:35.260Z,9.656064
2018-08-31T00:57:47.687Z,9.656064
2018-08-31T00:58:00.335Z,9.656064
2018-08-31T00:58:12.847Z,6.437376
2018-08-31T00:58:25.270Z,6.437376
2018-08-31T00:58:37.783Z,6.437376
2018-08-31T00:58:50.254Z,6.437376
2018-08-31T00:59:02.674Z,6.437376
2018-08-31T00:59:15.092Z,9.656064
2018-08-31T00:59:27.538Z,9.656064
2018-08-31T00:59:39.955Z,9.656064
2018-08-31T00:59:52.410Z,9.656064
2018-08-31T01:00:04.855Z,12.874752
2018-08-31T01:00:17.293Z,16.09344
2018-08-31T01:00:29.728Z,17.702784
2018-08-31T01:00:42.162Z,17.702784
2018-08-31T01:00:54.640Z,17.702784
2018-08-31T01:01:07.091Z,8.04672
2018-08-31T01:01:19.536Z,8.04672
2018-08-31T01:01:31.956Z,9.656064
2018-08-31T01:01:44.373Z,9.656064
2018-08-31T01:01:56.797Z,11.265408
2018-08-31T01:02:09.381Z,11.265408
2018-08-31T01:02:21.798Z,14.484096
2018-08-31T01:02:34.205Z,14.484096
2018-08-31T01:02:46.622Z,14.484096
2018-08-31T01:02:59.523Z,14.484096
2018-08-31T01:03:11.955Z,6.437376
2018-08-31T01:03:24.386Z,6.437376
2018-08-31T01:03:36.811Z,6.437376
2018-08-31T01:03:49.216Z,6.437376
2018-08-31T01:04:01.617Z,9.656064
2018-08-31T01:04:14.028Z,9.656064
2018-08-31T01:04:26.428Z,9.656064
2018-08-31T01:04:38.827Z,16.09344
2018-08-31T01:04:51.218Z,16.09344
2018-08-31T01:05:03.607Z,16.09344
2018-08-31T01:05:16.008Z,6.437376
2018-08-31T01:05:28.521Z,12.874752
2018-08-31T01:05:41.034Z,12.874752
2018-08-31T01:05:53.582Z,16.09344
2018-08-31T01:06:05.966Z,3.218688
2018-08-31T01:06:18.360Z,8.04672
2018-08-31T01:06:30.776Z,9.656064
2018-08-31T01:06:43.209Z,12.874752
2018-08-31T01:06:55.598Z,12.874752
2018-08-31T01:07:08.002Z,3.218688
2018-08-31T01:07:20.396Z,11.265408
2018-08-31T01:07:32.798Z,11.265408
2018-08-31T01:07:45.191Z,11.265408
2018-08-31T01:07:57.592Z,11.265408
2018-08-31T01:08:10.008Z,8.04672
2018-08-31T01:08:22.455Z,8.04672
2018-08-31T01:08:34.848Z,8.04672
2018-08-31T01:08:47.253Z,8.04672
2018-08-31T01:08:59.663Z,8.04672
2018-08-31T01:09:12.059Z,11.265408
2018-08-31T01:09:24.476Z,11.265408
2018-08-31T01:09:36.876Z,11.265408
2018-08-31T01:09:49.299Z,11.265408
2018-08-31T01:10:01.691Z,11.265408
2018-08-31T01:10:14.153Z,3.218688
2018-08-31T01:10:26.565Z,3.218688
2018-08-31T01:10:38.976Z,6.437376
2018-08-31T01:10:51.399Z,8.04672
2018-08-31T01:11:03.805Z,12.874752
2018-08-31T01:11:16.220Z,14.484096
2018-08-31T01:11:28.654Z,14.484096
2018-08-31T01:11:41.077Z,14.484096
2018-08-31T01:11:53.491Z,17.702784
2018-08-31T01:12:05.915Z,16.09344
2018-08-31T01:12:18.322Z,16.09344
2018-08-31T01:12:30.732Z,16.09344
2018-08-31T01:12:43.151Z,16.09344
2018-08-31T01:12:55.611Z,16.09344
2018-08-31T01:13:08.044Z,8.04672
2018-08-31T01:13:20.454Z,8.04672
2018-08-31T01:13:32.968Z,14.484096
2018-08-31T01:13:45.384Z,14.484096
2018-08-31T01:13:57.789Z,14.484096
2018-08-31T01:14:10.248Z,9.656064
2018-08-31T01:14:22.671Z,9.656064
2018-08-31T01:14:35.088Z,11.265408
2018-08-31T01:14:47.497Z,11.265408
2018-08-31T01:14:59.921Z,12.874752
2018-08-31T01:15:12.384Z,8.04672
2018-08-31T01:15:24.796Z,8.04672
2018-08-31T01:15:37.200Z,8.04672
2018-08-31T01:15:49.621Z,8.04672
2018-08-31T01:16:02.076Z,9.656064
2018-08-31T01:16:14.477Z,9.656064
2018-08-31T01:16:26.961Z,12.874752
2018-08-31T01:16:39.407Z,14.484096
2018-08-31T01:16:51.841Z,14.484096
2018-08-31T01:17:04.262Z,9.656064
2018-08-31T01:17:16.698Z,12.874752
2018-08-31T01:17:29.156Z,12.874752
2018-08-31T01:17:41.571Z,12.874752
2018-08-31T01:17:54.001Z,12.874752
2018-08-31T01:18:06.415Z,11.265408
2018-08-31T01:18:18.831Z,12.874752
2018-08-31T01:18:31.235Z,12.874752
2018-08-31T01:18:43.661Z,12.874752
2018-08-31T01:18:56.071Z,12.874752
2018-08-31T01:19:08.495Z,1.609344
2018-08-31T01:19:20.910Z,14.484096
2018-08-31T01:19:33.623Z,14.484096
2018-08-31T01:19:46.023Z,14.484096
2018-08-31T01:19:58.436Z,14.484096
2018-08-31T01:20:11.005Z,11.265408
2018-08-31T01:20:23.422Z,11.265408
2018-08-31T01:20:35.960Z,11.265408
2018-08-31T01:20:48.366Z,11.265408
2018-08-31T01:21:00.763Z,11.265408
2018-08-31T01:21:13.224Z,6.437376
2018-08-31T01:21:25.613Z,6.437376
2018-08-31T01:21:38.091Z,6.437376
2018-08-31T01:21:50.492Z,6.437376
2018-08-31T01:22:02.905Z,6.437376
2018-08-31T01:22:15.326Z,8.04672
2018-08-31T01:22:27.756Z,12.874752
2018-08-31T01:22:40.153Z,12.874752
2018-08-31T01:22:52.660Z,12.874752
2018-08-31T01:23:05.091Z,8.04672
2018-08-31T01:23:17.504Z,9.656064
2018-08-31T01:23:29.980Z,9.656064
2018-08-31T01:23:42.394Z,9.656064
2018-08-31T01:23:54.821Z,9.656064
2018-08-31T01:24:07.233Z,17.702784
2018-08-31T01:24:19.656Z,17.702784
2018-08-31T01:24:32.135Z,17.702784
2018-08-31T01:24:44.600Z,17.702784
2018-08-31T01:24:57.022Z,17.702784
2018-08-31T01:25:09.647Z,8.04672
2018-08-31T01:25:22.097Z,9.656064
2018-08-31T01:25:34.500Z,9.656064
2018-08-31T01:25:46.909Z,9.656064
2018-08-31T01:25:59.317Z,9.656064
2018-08-31T01:26:11.734Z,9.656064
2018-08-31T01:26:24.177Z,9.656064
2018-08-31T01:26:36.888Z,9.656064
2018-08-31T01:26:49.343Z,9.656064
2018-08-31T01:27:01.744Z,9.656064
2018-08-31T01:27:14.199Z,11.265408
2018-08-31T01:27:26.591Z,11.265408
2018-08-31T01:27:38.993Z,11.265408
2018-08-31T01:27:51.499Z,11.265408
2018-08-31T01:28:03.929Z,8.04672
2018-08-31T01:28:16.328Z,8.04672
2018-08-31T01:28:28.734Z,8.04672
2018-08-31T01:28:41.260Z,9.656064
2018-08-31T01:28:53.663Z,9.656064
2018-08-31T01:29:06.075Z,8.04672
2018-08-31T01:29:18.487Z,9.656064
2018-08-31T01:29:30.895Z,9.656064
2018-08-31T01:29:43.305Z,9.656064
2018-08-31T01:29:55.708Z,14.484096
2018-08-31T01:30:08.135Z,14.484096
2018-08-31T01:30:20.567Z,14.484096
2018-08-31T01:30:32.965Z,14.484096
2018-08-31T01:30:45.367Z,14.484096
2018-08-31T01:30:57.803Z,14.484096
2018-08-31T01:31:10.233Z,11.265408
2018-08-31T01:31:22.637Z,12.874752
2018-08-31T01:31:35.068Z,12.874752
2018-08-31T01:31:47.473Z,16.09344
2018-08-31T01:31:59.954Z,16.09344
2018-08-31T01:32:12.565Z,14.484096
2018-08-31T01:32:24.977Z,14.484096
2018-08-31T01:32:37.399Z,14.484096
2018-08-31T01:32:49.807Z,14.484096
2018-08-31T01:33:02.223Z,14.484096
2018-08-31T01:33:14.672Z,12.874752
2018-08-31T01:33:27.144Z,12.874752
2018-08-31T01:33:39.657Z,12.874752
2018-08-31T01:33:52.105Z,12.874752
2018-08-31T01:34:04.895Z,9.656064
2018-08-31T01:34:17.592Z,12.874752
2018-08-31T01:34:30.057Z,12.874752
2018-08-31T01:34:42.472Z,14.484096
2018-08-31T01:34:54.913Z,14.484096
2018-08-31T01:35:07.344Z,9.656064
2018-08-31T01:35:19.763Z,9.656064
2018-08-31T01:35:32.160Z,11.265408
2018-08-31T01:35:44.566Z,11.265408
2018-08-31T01:35:56.979Z,11.265408
2018-08-31T01:36:09.390Z,3.218688
2018-08-31T01:36:21.793Z,3.218688
2018-08-31T01:36:34.221Z,8.04672
2018-08-31T01:36:46.658Z,9.656064
2018-08-31T01:36:59.107Z,9.656064
2018-08-31T01:37:11.549Z,3.218688
2018-08-31T01:37:23.977Z,12.874752
2018-08-31T01:37:36.381Z,12.874752
2018-08-31T01:37:48.806Z,12.874752
2018-08-31T01:38:01.210Z,12.874752
2018-08-31T01:38:13.650Z,8.04672
2018-08-31T01:38:26.052Z,11.265408
2018-08-31T01:38:38.486Z,11.265408
2018-08-31T01:38:50.945Z,11.265408
2018-08-31T01:39:03.356Z,11.265408
2018-08-31T01:39:15.872Z,1.609344
2018-08-31T01:39:28.286Z,3.218688
2018-08-31T01:39:40.705Z,3.218688
2018-08-31T01:39:53.138Z,8.04672
2018-08-31T01:40:05.539Z,12.874752
2018-08-31T01:40:17.959Z,12.874752
2018-08-31T01:40:30.538Z,12.874752
2018-08-31T01:40:42.971Z,12.874752
2018-08-31T01:40:55.365Z,12.874752
2018-08-31T01:41:07.788Z,3.218688
2018-08-31T01:41:20.208Z,8.04672
2018-08-31T01:41:32.629Z,8.04672
2018-08-31T01:41:45.058Z,8.04672
2018-08-31T01:41:57.473Z,11.265408
2018-08-31T01:42:09.896Z,9.656064
2018-08-31T01:42:22.452Z,12.874752
2018-08-31T01:42:34.835Z,12.874752
2018-08-31T01:42:47.237Z,12.874752
2018-08-31T01:42:59.672Z,14.484096
2018-08-31T01:43:12.081Z,8.04672
2018-08-31T01:43:24.474Z,9.656064
2018-08-31T01:43:36.898Z,11.265408
2018-08-31T01:43:49.304Z,11.265408
2018-08-31T01:44:01.710Z,11.265408
2018-08-31T01:44:14.122Z,11.265408
2018-08-31T01:44:26.537Z,11.265408
2018-08-31T01:44:38.957Z,11.265408
2018-08-31T01:44:51.369Z,11.265408
2018-08-31T01:45:03.773Z,11.265408
2018-08-31T01:45:16.218Z,12.874752
2018-08-31T01:45:28.658Z,12.874752
2018-08-31T01:45:41.084Z,12.874752
2018-08-31T01:45:53.512Z,12.874752
2018-08-31T01:46:05.981Z,4.828032
2018-08-31T01:46:18.395Z,12.874752
2018-08-31T01:46:30.820Z,22.530816
2018-08-31T01:46:43.211Z,22.530816
2018-08-31T01:46:55.622Z,22.530816
2018-08-31T01:47:08.037Z,6.437376
2018-08-31T01:47:20.454Z,14.484096
2018-08-31T01:47:32.859Z,14.484096
2018-08-31T01:47:45.256Z,14.484096
2018-08-31T01:47:57.700Z,14.484096
2018-08-31T01:48:10.146Z,8.04672
2018-08-31T01:48:22.563Z,8.04672
2018-08-31T01:48:34.988Z,8.04672
2018-08-31T01:48:47.389Z,12.874752
2018-08-31T01:48:59.888Z,12.874752
2018-08-31T01:49:12.542Z,11.265408
2018-08-31T01:49:24.978Z,14.484096
2018-08-31T01:49:37.471Z,14.484096
2018-08-31T01:49:49.906Z,14.484096
2018-08-31T01:50:02.353Z,14.484096
2018-08-31T01:50:14.794Z,12.874752
2018-08-31T01:50:27.231Z,22.530816
2018-08-31T01:50:39.661Z,24.14016
2018-08-31T01:50:52.123Z,24.14016
2018-08-31T01:51:04.555Z,14.484096
2018-08-31T01:51:16.980Z,14.484096
2018-08-31T01:51:29.425Z,14.484096
2018-08-31T01:51:41.839Z,14.484096
2018-08-31T01:51:54.283Z,14.484096
2018-08-31T01:52:06.690Z,9.656064
2018-08-31T01:52:19.097Z,9.656064
2018-08-31T01:52:31.608Z,9.656064
2018-08-31T01:52:44.706Z,9.656064
2018-08-31T01:52:58.466Z,9.656064
2018-08-31T01:53:10.887Z,14.484096
2018-08-31T01:53:23.306Z,14.484096
2018-08-31T01:53:35.730Z,14.484096
2018-08-31T01:53:48.151Z,14.484096
2018-08-31T01:54:00.581Z,14.484096
2018-08-31T01:54:12.995Z,11.265408
2018-08-31T01:54:25.410Z,11.265408
2018-08-31T01:54:37.858Z,11.265408
2018-08-31T01:54:50.279Z,11.265408
2018-08-31T01:55:02.722Z,11.265408
2018-08-31T01:55:15.150Z,9.656064
2018-08-31T01:55:27.610Z,11.265408
2018-08-31T01:55:40.059Z,12.874752
2018-08-31T01:55:52.481Z,12.874752
2018-08-31T01:56:04.908Z,6.437376
2018-08-31T01:56:17.337Z,6.437376
2018-08-31T01:56:29.746Z,6.437376
2018-08-31T01:56:42.158Z,11.265408
2018-08-31T01:56:54.606Z,11.265408
2018-08-31T01:57:07.235Z,12.874752
2018-08-31T01:57:19.657Z,12.874752
2018-08-31T01:57:32.083Z,12.874752
2018-08-31T01:57:44.517Z,16.09344
2018-08-31T01:57:56.931Z,16.09344
2018-08-31T01:58:09.360Z,8.04672
2018-08-31T01:58:21.931Z,8.04672
2018-08-31T01:58:34.368Z,12.874752
2018-08-31T01:58:46.777Z,14.484096
2018-08-31T01:58:59.194Z,14.484096
2018-08-31T01:59:11.625Z,8.04672
2018-08-31T01:59:24.069Z,8.04672
2018-08-31T01:59:36.500Z,11.265408
2018-08-31T01:59:48.952Z,11.265408
2018-08-31T02:00:01.394Z,14.484096
2018-08-31T02:00:13.841Z,8.04672
2018-08-31T02:00:26.277Z,8.04672
2018-08-31T02:00:38.735Z,8.04672
2018-08-31T02:00:51.231Z,8.04672
2018-08-31T02:01:03.678Z,8.04672
2018-08-31T02:01:16.119Z,9.656064
2018-08-31T02:01:28.568Z,12.874752
2018-08-31T02:01:41.085Z,12.874752
2018-08-31T02:01:53.537Z,12.874752
2018-08-31T02:02:06.013Z,8.04672
2018-08-31T02:02:18.462Z,8.04672
2018-08-31T02:02:30.887Z,9.656064
2018-08-31T02:02:43.506Z,9.656064
2018-08-31T02:02:56.052Z,9.656064
2018-08-31T02:03:08.662Z,4.828032
2018-08-31T02:03:21.065Z,6.437376
2018-08-31T02:03:33.495Z,6.437376
2018-08-31T02:03:45.920Z,6.437376
2018-08-31T02:03:58.393Z,8.04672
2018-08-31T02:04:11.447Z,3.218688
2018-08-31T02:04:24.726Z,3.218688
2018-08-31T02:04:37.131Z,3.218688
2018-08-31T02:04:49.555Z,14.484096
2018-08-31T02:05:01.962Z,14.484096
2018-08-31T02:05:14.361Z,8.04672
2018-08-31T02:05:26.978Z,8.04672
2018-08-31T02:05:39.420Z,8.04672
2018-08-31T02:05:51.880Z,9.656064
2018-08-31T02:06:04.461Z,9.656064
2018-08-31T02:06:16.868Z,14.484096
2018-08-31T02:06:29.268Z,14.484096
2018-08-31T02:06:41.709Z,14.484096
2018-08-31T02:06:54.153Z,14.484096
2018-08-31T02:07:06.576Z,9.656064
2018-08-31T02:07:19.003Z,9.656064
2018-08-31T02:07:31.418Z,9.656064
2018-08-31T02:07:43.971Z,9.656064
2018-08-31T02:07:56.384Z,9.656064
2018-08-31T02:08:08.803Z,17.702784
2018-08-31T02:08:21.219Z,17.702784
2018-08-31T02:08:33.666Z,17.702784
2018-08-31T02:08:46.081Z,17.702784
2018-08-31T02:08:58.500Z,17.702784
2018-08-31T02:09:10.902Z,6.437376
2018-08-31T02:09:23.308Z,11.265408
2018-08-31T02:09:35.710Z,11.265408
2018-08-31T02:09:48.115Z,11.265408
2018-08-31T02:10:00.659Z,11.265408
2018-08-31T02:10:13.071Z,3.218688
2018-08-31T02:10:25.543Z,9.656064
2018-08-31T02:10:37.974Z,9.656064
2018-08-31T02:10:50.385Z,9.656064
2018-08-31T02:11:02.819Z,12.874752
2018-08-31T02:11:15.245Z,11.265408
2018-08-31T02:11:27.648Z,11.265408
2018-08-31T02:11:40.057Z,11.265408
2018-08-31T02:11:52.489Z,11.265408
2018-08-31T02:12:04.874Z,9.656064
2018-08-31T02:12:17.277Z,14.484096
2018-08-31T02:12:29.695Z,16.09344
2018-08-31T02:12:42.204Z,16.09344
2018-08-31T02:12:54.624Z,16.09344
2018-08-31T02:13:07.055Z,8.04672
2018-08-31T02:13:19.473Z,8.04672
2018-08-31T02:13:31.933Z,12.874752
2018-08-31T02:13:44.342Z,12.874752
2018-08-31T02:13:56.751Z,12.874752
2018-08-31T02:14:09.173Z,9.656064
2018-08-31T02:14:21.581Z,9.656064
2018-08-31T02:14:34.003Z,11.265408
2018-08-31T02:14:46.420Z,11.265408
2018-08-31T02:14:58.854Z,11.265408
2018-08-31T02:15:11.285Z,8.04672
2018-08-31T02:15:23.766Z,11.265408
2018-08-31T02:15:36.201Z,11.265408
2018-08-31T02:15:48.611Z,11.265408
2018-08-31T02:16:01.038Z,12.874752
2018-08-31T02:16:13.452Z,12.874752
2018-08-31T02:16:25.933Z,12.874752
2018-08-31T02:16:38.400Z,12.874752
2018-08-31T02:16:50.863Z,12.874752
2018-08-31T02:17:03.272Z,12.874752
2018-08-31T02:17:15.711Z,8.04672
2018-08-31T02:17:28.125Z,8.04672
2018-08-31T02:17:40.545Z,8.04672
2018-08-31T02:17:52.995Z,8.04672
2018-08-31T02:18:05.403Z,3.218688
2018-08-31T02:18:18.029Z,9.656064
2018-08-31T02:18:30.442Z,9.656064
2018-08-31T02:18:42.840Z,9.656064
2018-08-31T02:18:55.264Z,9.656064
2018-08-31T02:19:07.678Z,8.04672
2018-08-31T02:19:20.106Z,8.04672
2018-08-31T02:19:32.722Z,8.04672
2018-08-31T02:19:45.195Z,8.04672
2018-08-31T02:19:57.609Z,8.04672
2018-08-31T02:20:10.086Z,8.04672
2018-08-31T02:20:22.492Z,11.265408
2018-08-31T02:20:34.949Z,11.265408
2018-08-31T02:20:47.365Z,12.874752
2018-08-31T02:20:59.765Z,12.874752
2018-08-31T02:21:12.161Z,11.265408
2018-08-31T02:21:24.571Z,11.265408
2018-08-31T02:21:37.013Z,11.265408
2018-08-31T02:21:49.446Z,11.265408
2018-08-31T02:22:01.841Z,11.265408
2018-08-31T02:22:14.232Z,8.04672
2018-08-31T02:22:26.670Z,8.04672
2018-08-31T02:22:39.089Z,8.04672
2018-08-31T02:22:51.627Z,9.656064
2018-08-31T02:23:04.055Z,3.218688
2018-08-31T02:23:16.463Z,3.218688
2018-08-31T02:23:28.859Z,3.218688
2018-08-31T02:23:41.342Z,9.656064
2018-08-31T02:23:53.788Z,17.702784
2018-08-31T02:24:06.213Z,4.828032
2018-08-31T02:24:18.647Z,8.04672
2018-08-31T02:24:31.136Z,8.04672